Malaysia Virtual Airlines Airport Information Service

Kota Kinabalu

ICAO: WBKK Country: Malaysia
Latitude: 5.93721 Longitude: 116.051
Latest Arrival : AK1792 (WSSS-WBKK) Latest Departure : MH80 (WBKK-RJAA)


WX CaptureLIVE
Data provided by noaa.gov | Fetched at 15:58:50

METAR : WBKK 261530Z 11005KT 9999 FEW015 27/22 Q1009 NOSIG

TAF : WBKK 261100Z 2612/2712 12007KT 9999 FEW014 BECMG 2700/2702 25008KT


Runway Data for WBKK
Data provided by openaviationdata.com

Runway ID Mag Var Hdg Length Elevation Surface ILS Freq ILS Id ILS Slope
2 0 22° 9829 ft 10 ft Asphalt 110.3 IKKS 3
20 0 202° 9829 ft 10 ft Asphalt -- -- --

Kota Kinabalu, Malaysia
Use only for reference purposes



Not for navigational purposes.